createdAt,value
2023-02-09T00:01:09.909Z,84.70
2023-02-09T00:03:57.634Z,83.80
2023-02-09T00:06:44.038Z,82.00
2023-02-09T00:09:31.056Z,83.60
2023-02-09T00:12:37.526Z,84.00
2023-02-09T00:15:23.945Z,84.60
2023-02-09T00:18:10.642Z,81.90
2023-02-09T00:21:04.038Z,82.70
2023-02-09T00:23:50.770Z,85.20
2023-02-09T00:26:37.629Z,80.60
2023-02-09T00:29:24.344Z,83.10
2023-02-09T00:32:10.907Z,82.10
2023-02-09T00:34:57.784Z,80.40
2023-02-09T00:37:44.419Z,79.40
2023-02-09T00:40:30.920Z,79.50
2023-02-09T00:43:17.763Z,79.90
2023-02-09T00:46:04.862Z,79.50
2023-02-09T00:48:51.605Z,81.00
2023-02-09T00:51:39.514Z,80.30
2023-02-09T00:54:26.085Z,80.70
2023-02-09T00:57:14.147Z,79.40
2023-02-09T01:00:00.453Z,76.40
2023-02-09T01:02:47.830Z,79.80
2023-02-09T01:05:34.559Z,79.60
2023-02-09T01:08:21.063Z,76.10
2023-02-09T01:11:09.949Z,78.50
2023-02-09T01:13:58.792Z,77.70
2023-02-09T01:16:45.355Z,78.00
2023-02-09T01:19:33.282Z,82.90
2023-02-09T01:22:20.274Z,83.80
2023-02-09T01:25:08.164Z,84.40
2023-02-09T01:27:54.556Z,82.10
2023-02-09T01:30:41.057Z,79.00
2023-02-09T01:33:27.809Z,78.30
2023-02-09T01:36:14.560Z,79.50
2023-02-09T01:39:03.946Z,78.30
2023-02-09T01:41:51.016Z,79.80
2023-02-09T01:44:37.392Z,79.60
2023-02-09T01:47:24.107Z,80.20
2023-02-09T01:50:11.750Z,74.10
2023-02-09T01:52:58.450Z,75.00
2023-02-09T01:55:53.008Z,74.10
2023-02-09T01:58:39.925Z,74.70
2023-02-09T02:01:26.865Z,73.20
2023-02-09T02:04:13.857Z,71.10
2023-02-09T02:07:09.628Z,69.20
2023-02-09T02:09:56.368Z,71.80
2023-02-09T02:12:43.796Z,71.40
2023-02-09T02:15:41.103Z,70.10
2023-02-09T02:18:48.872Z,68.10
2023-02-09T02:21:56.651Z,70.10
2023-02-09T02:24:43.279Z,70.20
2023-02-09T02:27:42.256Z,66.90
2023-02-09T02:30:55.130Z,64.70
2023-02-09T02:33:48.516Z,62.60
2023-02-09T02:36:52.294Z,62.80
2023-02-09T02:40:10.670Z,67.00
2023-02-09T02:43:07.599Z,61.50
2023-02-09T02:46:00.746Z,60.10
2023-02-09T02:49:10.628Z,62.20
2023-02-09T02:52:02.671Z,59.40
2023-02-09T02:55:00.915Z,61.90
2023-02-09T02:57:53.708Z,59.30
2023-02-09T03:00:46.996Z,60.70
2023-02-09T03:03:36.813Z,58.90
2023-02-09T03:06:23.425Z,59.40
2023-02-09T03:09:10.251Z,61.80
2023-02-09T03:12:14.087Z,56.80
2023-02-09T03:15:22.868Z,60.80
2023-02-09T03:18:12.446Z,58.40
2023-02-09T03:21:03.854Z,61.30
2023-02-09T03:24:24.806Z,58.70
2023-02-09T03:27:37.141Z,58.80
2023-02-09T03:30:25.139Z,56.90
2023-02-09T03:33:23.750Z,58.20
2023-02-09T03:36:16.951Z,58.10
2023-02-09T03:39:05.596Z,57.60
2023-02-09T03:41:52.158Z,54.20
2023-02-09T03:44:38.892Z,57.10
2023-02-09T03:47:25.406Z,55.70
2023-02-09T03:50:12.237Z,55.10
2023-02-09T03:52:59.696Z,57.70
2023-02-09T03:55:47.273Z,57.60
2023-02-09T03:58:36.209Z,56.10
2023-02-09T04:01:22.391Z,54.00
2023-02-09T04:04:08.848Z,56.50
2023-02-09T04:06:56.320Z,55.70
2023-02-09T04:09:42.678Z,57.30
2023-02-09T04:12:29.816Z,57.40
2023-02-09T04:15:16.446Z,56.40
2023-02-09T04:18:03.253Z,55.10
2023-02-09T04:20:49.787Z,57.10
2023-02-09T04:23:37.059Z,59.20
2023-02-09T04:26:24.056Z,55.90
2023-02-09T04:29:10.848Z,60.70
2023-02-09T04:31:57.779Z,57.40
2023-02-09T04:34:44.333Z,58.70
2023-02-09T04:37:31.135Z,54.40
2023-02-09T04:40:18.116Z,54.20
2023-02-09T04:43:04.777Z,58.70
2023-02-09T04:45:51.900Z,53.30
2023-02-09T04:48:38.672Z,57.10
2023-02-09T04:51:25.709Z,52.30
2023-02-09T04:54:12.100Z,58.00
2023-02-09T04:57:17.824Z,54.50
2023-02-09T05:00:05.121Z,54.70
2023-02-09T05:02:51.537Z,55.00
2023-02-09T05:05:42.260Z,54.90
2023-02-09T05:08:29.765Z,55.10
2023-02-09T05:11:17.828Z,58.80
2023-02-09T05:14:04.745Z,57.20
2023-02-09T05:16:51.594Z,56.50
2023-02-09T05:19:38.117Z,55.10
2023-02-09T05:22:25.046Z,55.40
2023-02-09T05:25:37.998Z,54.40
2023-02-09T05:28:25.289Z,54.20
2023-02-09T05:31:12.081Z,54.30
2023-02-09T05:34:01.286Z,54.80
2023-02-09T05:36:47.845Z,56.50
2023-02-09T05:39:34.178Z,57.40
2023-02-09T05:42:20.986Z,59.80
2023-02-09T05:45:08.814Z,61.20
2023-02-09T05:47:55.663Z,61.90
2023-02-09T05:50:42.335Z,59.70
2023-02-09T05:53:29.084Z,60.40
2023-02-09T05:56:15.887Z,59.50
2023-02-09T05:59:04.484Z,61.10
2023-02-09T06:01:51.646Z,62.10
2023-02-09T06:04:38.158Z,65.30
2023-02-09T06:07:27.306Z,65.00
2023-02-09T06:10:14.321Z,63.50
2023-02-09T06:13:01.004Z,64.10
2023-02-09T06:15:47.752Z,67.10
2023-02-09T06:18:34.486Z,63.60
2023-02-09T06:21:21.468Z,63.30
2023-02-09T06:24:08.285Z,61.70
2023-02-09T06:26:56.362Z,63.00
2023-02-09T06:29:42.950Z,63.90
2023-02-09T06:32:29.928Z,66.90
2023-02-09T06:35:16.493Z,68.20
2023-02-09T06:38:03.130Z,70.30
2023-02-09T06:40:51.944Z,72.00
2023-02-09T06:43:38.779Z,71.20
2023-02-09T06:46:26.466Z,69.60
2023-02-09T06:49:13.305Z,72.90
2023-02-09T06:52:00.124Z,70.80
2023-02-09T06:54:46.910Z,71.50
2023-02-09T06:57:34.883Z,72.40
2023-02-09T07:00:22.195Z,75.20
2023-02-09T07:03:11.240Z,72.10
2023-02-09T07:06:05.854Z,72.70
2023-02-09T07:08:52.773Z,72.60
2023-02-09T07:11:40.061Z,70.20
2023-02-09T07:14:29.054Z,68.80
2023-02-09T07:17:16.155Z,75.00
2023-02-09T07:20:04.339Z,70.90
2023-02-09T07:22:51.494Z,71.10
2023-02-09T07:25:38.827Z,71.20
2023-02-09T07:28:27.753Z,73.60
2023-02-09T07:31:16.549Z,67.40
2023-02-09T07:34:03.079Z,73.40
2023-02-09T07:36:50.000Z,70.30
2023-02-09T07:39:36.772Z,69.50
2023-02-09T07:42:23.861Z,72.50
2023-02-09T07:45:10.906Z,70.10
2023-02-09T07:47:57.696Z,67.50
2023-02-09T07:50:51.381Z,70.20
2023-02-09T07:53:38.440Z,65.90
2023-02-09T07:56:25.754Z,65.90
2023-02-09T07:59:12.123Z,58.20
2023-02-09T08:01:58.940Z,56.30
2023-02-09T08:04:46.776Z,55.60
2023-02-09T08:07:33.959Z,54.70
2023-02-09T08:10:20.883Z,58.90
2023-02-09T08:13:09.271Z,60.00
2023-02-09T08:16:04.990Z,58.80
2023-02-09T08:18:58.547Z,60.40
2023-02-09T08:21:48.898Z,53.50
2023-02-09T08:24:35.774Z,56.50
2023-02-09T08:27:23.235Z,54.70
2023-02-09T08:32:40.714Z,55.30
2023-02-09T08:35:30.748Z,52.70
2023-02-09T08:38:17.970Z,56.20
2023-02-09T08:41:10.160Z,55.10
2023-02-09T08:43:57.144Z,56.80
2023-02-09T08:46:46.931Z,56.70
2023-02-09T08:49:35.489Z,56.00
2023-02-09T08:52:23.727Z,57.50
2023-02-09T08:55:11.077Z,55.60
2023-02-09T08:57:57.857Z,54.60
2023-02-09T09:00:45.829Z,53.70
2023-02-09T09:03:33.453Z,54.90
2023-02-09T09:06:22.233Z,53.00
2023-02-09T09:09:09.081Z,57.00
2023-02-09T09:15:10.230Z,54.50
2023-02-09T09:17:56.942Z,50.90
2023-02-09T09:20:44.723Z,51.70
2023-02-09T09:23:31.480Z,54.60
2023-02-09T09:26:18.687Z,53.70
2023-02-09T09:29:05.528Z,54.90
2023-02-09T09:31:52.648Z,53.70
2023-02-09T09:34:41.540Z,53.00
2023-02-09T09:37:29.803Z,53.10
2023-02-09T09:40:29.852Z,53.90
2023-02-09T09:43:36.002Z,52.50
2023-02-09T09:46:37.231Z,54.70
2023-02-09T09:49:27.421Z,53.90
2023-02-09T09:52:17.599Z,55.50
2023-02-09T09:55:07.950Z,57.40
2023-02-09T09:58:03.030Z,51.60
2023-02-09T10:00:51.492Z,51.60
2023-02-09T10:03:38.113Z,50.00
2023-02-09T10:06:24.973Z,51.00
2023-02-09T10:09:37.123Z,47.40
2023-02-09T10:12:37.475Z,46.40
2023-02-09T10:15:31.528Z,51.10
2023-02-09T10:18:25.357Z,52.00
2023-02-09T10:21:16.407Z,45.90
2023-02-09T10:24:20.276Z,48.00
2023-02-09T10:27:13.306Z,50.90
2023-02-09T10:30:26.659Z,48.70
2023-02-09T10:33:16.198Z,47.90
2023-02-09T10:37:13.096Z,47.20
2023-02-09T10:39:41.815Z,46.90
2023-02-09T10:42:35.446Z,47.80
2023-02-09T10:45:32.245Z,41.80
2023-02-09T10:48:21.473Z,46.30
2023-02-09T10:51:16.056Z,42.30
2023-02-09T10:54:07.468Z,42.80
2023-02-09T10:56:53.956Z,42.80
2023-02-09T10:59:41.419Z,43.00
2023-02-09T11:02:41.999Z,37.90
2023-02-09T11:05:35.054Z,36.90
2023-02-09T11:08:24.473Z,39.40
2023-02-09T11:11:31.808Z,35.80
2023-02-09T11:14:20.300Z,36.10
2023-02-09T11:17:31.543Z,39.80
2023-02-09T11:20:44.158Z,31.30
2023-02-09T11:23:52.373Z,29.10
2023-02-09T11:26:47.870Z,30.10
2023-02-09T11:29:44.572Z,31.30
2023-02-09T11:32:54.685Z,26.80
2023-02-09T11:36:14.786Z,26.20
2023-02-09T11:39:12.049Z,26.70
2023-02-09T11:42:41.412Z,26.60
2023-02-09T11:45:33.977Z,26.70
2023-02-09T11:48:28.004Z,28.00
2023-02-09T11:51:19.702Z,28.00
2023-02-09T11:54:14.670Z,27.50
2023-02-09T11:57:07.798Z,28.40
2023-02-09T11:59:58.917Z,26.90
2023-02-09T12:02:59.209Z,27.70
2023-02-09T12:05:46.236Z,29.80
2023-02-09T12:08:55.101Z,27.60
2023-02-09T12:11:46.884Z,28.40
2023-02-09T12:15:24.608Z,29.20
2023-02-09T12:18:18.951Z,27.10
2023-02-09T12:21:07.328Z,27.90
2023-02-09T12:23:53.912Z,27.60
2023-02-09T12:26:44.279Z,26.50
2023-02-09T12:29:39.913Z,26.10
2023-02-09T12:32:42.943Z,26.00
2023-02-09T12:35:39.421Z,24.90
2023-02-09T12:38:49.555Z,26.40
2023-02-09T12:41:42.990Z,23.90
2023-02-09T12:44:29.614Z,25.00
2023-02-09T12:47:45.719Z,24.90
2023-02-09T12:50:35.311Z,21.50
2023-02-09T12:53:21.847Z,23.20
2023-02-09T12:56:11.463Z,20.80
2023-02-09T12:59:19.906Z,22.50
2023-02-09T13:02:06.670Z,21.90
2023-02-09T13:04:53.307Z,21.00
2023-02-09T13:08:15.947Z,20.80
2023-02-09T13:11:14.086Z,18.50
2023-02-09T13:14:07.469Z,19.00
2023-02-09T13:16:57.163Z,19.20
2023-02-09T13:20:11.869Z,19.40
2023-02-09T13:23:16.856Z,18.10
2023-02-09T13:26:26.010Z,20.50
2023-02-09T13:29:21.498Z,17.80
2023-02-09T13:32:17.666Z,19.60
2023-02-09T13:35:04.472Z,20.50
2023-02-09T13:37:59.564Z,20.50
2023-02-09T13:40:49.429Z,20.80
2023-02-09T13:43:39.250Z,19.00
2023-02-09T13:46:31.508Z,17.90
2023-02-09T13:49:21.904Z,20.90
2023-02-09T13:52:16.793Z,17.60
2023-02-09T13:55:19.188Z,20.20
2023-02-09T13:58:07.707Z,17.50
2023-02-09T14:01:15.753Z,24.60
2023-02-09T14:04:02.525Z,17.90
2023-02-09T14:06:52.099Z,16.30
2023-02-09T14:10:05.446Z,19.00
2023-02-09T14:13:14.878Z,16.60
2023-02-09T14:16:11.267Z,19.60
2023-02-09T14:20:21.762Z,15.70
2023-02-09T14:47:48.366Z,18.20
2023-02-09T15:01:42.474Z,18.90
2023-02-09T15:04:42.015Z,15.30
2023-02-09T15:07:35.616Z,17.10
2023-02-09T15:10:35.203Z,20.10
2023-02-09T15:13:23.600Z,18.80
2023-02-09T15:16:10.889Z,17.70
2023-02-09T15:18:58.016Z,18.70
2023-02-09T15:21:44.382Z,18.70
2023-02-09T15:24:32.242Z,21.80
2023-02-09T15:28:59.636Z,20.90
2023-02-09T15:31:47.626Z,23.00
2023-02-09T15:34:35.790Z,20.60
2023-02-09T15:37:31.814Z,22.70
2023-02-09T15:40:44.932Z,22.00
2023-02-09T15:43:51.929Z,22.00
2023-02-09T15:47:05.762Z,23.00
2023-02-09T15:49:52.536Z,24.70
2023-02-09T15:52:39.200Z,24.60
2023-02-09T15:55:27.245Z,21.30
2023-02-09T15:58:25.408Z,21.60
2023-02-09T16:01:16.935Z,23.90
2023-02-09T16:04:13.949Z,24.00
2023-02-09T16:07:03.655Z,60.50
2023-02-09T16:09:51.252Z,40.20
2023-02-09T16:12:38.119Z,27.90
2023-02-09T16:15:27.240Z,36.80
2023-02-09T16:18:14.756Z,26.50
2023-02-09T16:21:07.367Z,37.70
2023-02-09T16:23:59.291Z,30.10
2023-02-09T16:27:27.629Z,26.50
2023-02-09T16:30:20.566Z,26.90
2023-02-09T16:33:07.180Z,27.40
2023-02-09T16:35:57.187Z,28.20
2023-02-09T16:38:47.387Z,29.00
2023-02-09T16:41:48.325Z,27.80
2023-02-09T16:44:36.525Z,27.60
2023-02-09T16:47:28.692Z,25.30
2023-02-09T16:50:33.023Z,26.30
2023-02-09T16:53:32.903Z,29.00
2023-02-09T16:56:20.559Z,29.00
2023-02-09T16:59:12.790Z,26.20
2023-02-09T17:01:59.986Z,28.30
2023-02-09T17:04:46.619Z,26.10
2023-02-09T17:07:52.493Z,26.10
2023-02-09T17:10:40.719Z,28.60
2023-02-09T17:13:28.478Z,25.10
2023-02-09T17:16:54.172Z,28.00
2023-02-09T17:19:47.911Z,27.00
2023-02-09T17:22:33.970Z,26.90
2023-02-09T17:25:23.563Z,28.40
2023-02-09T17:28:27.350Z,27.60
2023-02-09T17:31:24.635Z,30.90
2023-02-09T17:34:16.283Z,29.20
2023-02-09T17:37:03.755Z,28.00
2023-02-09T17:39:50.039Z,29.40
2023-02-09T17:42:36.848Z,28.40
2023-02-09T17:45:26.896Z,29.00
2023-02-09T17:48:15.506Z,29.30
2023-02-09T17:52:16.726Z,28.90
2023-02-09T17:55:05.661Z,28.70
2023-02-09T17:57:57.453Z,29.50
2023-02-09T18:00:45.500Z,29.60
2023-02-09T18:03:31.070Z,30.50
2023-02-09T18:06:20.443Z,30.40
2023-02-09T18:09:12.678Z,33.40
2023-02-09T18:12:05.271Z,30.80
2023-02-09T18:16:19.878Z,31.50
2023-02-09T18:20:21.585Z,29.40
2023-02-09T18:23:13.686Z,31.50
2023-02-09T18:26:16.127Z,29.20
2023-02-09T18:29:31.838Z,29.90
2023-02-09T18:33:08.681Z,30.70
2023-02-09T19:00:29.943Z,31.60
2023-02-09T19:07:36.737Z,35.50
2023-02-09T20:24:45.470Z,35.40
2023-02-09T20:39:18.126Z,39.20
2023-02-09T20:43:07.486Z,33.50
2023-02-09T20:46:26.163Z,38.20
2023-02-09T21:01:32.368Z,34.90
2023-02-09T21:04:38.327Z,34.10
2023-02-09T21:07:56.806Z,38.30
2023-02-09T21:11:26.107Z,40.00
2023-02-09T21:15:57.747Z,37.60
2023-02-09T21:19:25.530Z,35.90
2023-02-09T22:02:15.504Z,33.00
2023-02-09T22:06:39.526Z,34.90
2023-02-09T22:22:09.241Z,29.70
2023-02-09T22:26:16.910Z,33.40
2023-02-09T22:30:13.366Z,29.10
2023-02-09T22:33:44.105Z,31.30
2023-02-09T22:37:00.936Z,29.30
2023-02-09T22:40:56.864Z,32.70
2023-02-09T22:45:16.730Z,32.30
2023-02-09T22:49:13.802Z,28.60
2023-02-09T22:52:35.553Z,30.40
2023-02-09T22:56:49.044Z,31.40
2023-02-09T23:06:07.982Z,32.40
2023-02-09T23:10:26.110Z,31.10
2023-02-09T23:13:52.843Z,29.70
2023-02-09T23:16:43.887Z,29.30
2023-02-09T23:19:30.723Z,32.20
2023-02-09T23:22:17.631Z,32.10
2023-02-09T23:25:04.108Z,28.70
2023-02-09T23:27:52.905Z,31.20
2023-02-09T23:31:07.881Z,29.00
2023-02-09T23:33:55.276Z,28.90
2023-02-09T23:36:42.026Z,32.00
2023-02-09T23:39:28.756Z,29.40
2023-02-09T23:42:16.433Z,30.30
2023-02-09T23:50:59.871Z,27.90
2023-02-09T23:53:47.715Z,27.40
2023-02-09T23:56:37.300Z,28.30
2023-02-09T23:59:24.057Z,27.30
